createdAt,value
2022-10-26T00:01:26.515Z,9.57
2022-10-26T00:03:58.323Z,9.71
2022-10-26T00:06:28.914Z,9.70
2022-10-26T00:08:58.352Z,9.87
2022-10-26T00:11:26.599Z,10.00
2022-10-26T00:13:54.823Z,10.09
2022-10-26T00:16:27.372Z,10.03
2022-10-26T00:18:56.341Z,9.99
2022-10-26T00:21:24.556Z,10.02
2022-10-26T00:23:53.203Z,10.06
2022-10-26T00:26:21.419Z,10.11
2022-10-26T00:28:49.874Z,10.21
2022-10-26T00:31:18.162Z,10.16
2022-10-26T00:33:47.855Z,10.15
2022-10-26T00:36:17.099Z,10.21
2022-10-26T00:38:50.322Z,10.32
2022-10-26T00:41:20.310Z,10.29
2022-10-26T00:43:48.951Z,10.16
2022-10-26T00:46:21.428Z,10.24
2022-10-26T00:48:55.729Z,10.19
2022-10-26T00:51:32.566Z,10.25
2022-10-26T00:54:05.448Z,10.11
2022-10-26T00:56:34.903Z,10.12
2022-10-26T00:59:07.711Z,10.14
2022-10-26T01:01:40.512Z,9.56
2022-10-26T01:04:10.525Z,10.23
2022-10-26T01:06:39.558Z,10.08
2022-10-26T01:09:08.056Z,10.13
2022-10-26T01:11:36.310Z,10.14
2022-10-26T01:14:09.778Z,10.19
2022-10-26T01:16:54.610Z,10.03
2022-10-26T01:20:23.125Z,10.09
2022-10-26T01:22:58.859Z,10.15
2022-10-26T01:25:43.013Z,10.07
2022-10-26T01:28:29.806Z,10.16
2022-10-26T01:31:02.714Z,10.34
2022-10-26T01:33:39.468Z,10.39
2022-10-26T01:36:14.476Z,10.46
2022-10-26T01:38:54.472Z,10.25
2022-10-26T01:41:29.609Z,10.37
2022-10-26T01:44:03.076Z,10.30
2022-10-26T01:46:39.593Z,10.39
2022-10-26T01:49:12.144Z,10.41
2022-10-26T01:51:44.631Z,10.44
2022-10-26T01:54:12.989Z,10.47
2022-10-26T01:56:44.015Z,9.55
2022-10-26T01:59:36.337Z,10.45
2022-10-26T02:02:43.562Z,10.48
2022-10-26T02:05:34.369Z,10.52
2022-10-26T02:08:29.457Z,10.58
2022-10-26T02:11:13.195Z,10.48
2022-10-26T02:13:48.305Z,10.51
2022-10-26T02:16:23.914Z,9.99
2022-10-26T02:19:02.464Z,10.64
2022-10-26T02:21:39.340Z,10.49
2022-10-26T02:24:12.074Z,10.58
2022-10-26T02:26:42.931Z,10.67
2022-10-26T02:29:15.221Z,10.62
2022-10-26T02:31:45.330Z,10.67
2022-10-26T02:34:18.720Z,10.50
2022-10-26T02:36:50.602Z,10.61
2022-10-26T02:39:21.309Z,10.57
2022-10-26T02:41:51.927Z,10.53
2022-10-26T02:44:26.613Z,10.50
2022-10-26T02:46:56.887Z,10.61
2022-10-26T02:49:26.983Z,10.69
2022-10-26T02:52:03.213Z,10.73
2022-10-26T02:54:38.283Z,10.68
2022-10-26T02:57:13.673Z,10.70
2022-10-26T02:59:47.603Z,10.61
2022-10-26T03:02:17.995Z,10.64
2022-10-26T03:04:50.466Z,10.63
2022-10-26T03:07:23.399Z,10.76
2022-10-26T03:09:51.714Z,10.64
2022-10-26T03:12:19.933Z,10.74
2022-10-26T03:14:48.083Z,10.77
2022-10-26T03:17:16.243Z,10.69
2022-10-26T03:19:44.468Z,10.74
2022-10-26T03:22:14.145Z,10.72
2022-10-26T03:24:42.401Z,10.71
2022-10-26T03:27:11.021Z,10.62
2022-10-26T03:29:39.210Z,10.66
2022-10-26T03:32:07.939Z,10.61
2022-10-26T03:34:36.186Z,10.80
2022-10-26T03:37:04.336Z,10.82
2022-10-26T03:39:33.935Z,10.88
2022-10-26T03:42:02.128Z,10.78
2022-10-26T03:44:31.143Z,10.86
2022-10-26T03:46:59.374Z,10.90
2022-10-26T03:49:27.621Z,10.89
2022-10-26T03:51:55.800Z,10.81
2022-10-26T03:54:25.060Z,10.76
2022-10-26T03:56:55.349Z,10.86
2022-10-26T03:59:23.770Z,10.82
2022-10-26T04:01:55.387Z,10.87
2022-10-26T04:04:35.804Z,10.82
2022-10-26T04:07:04.146Z,10.83
2022-10-26T04:09:32.366Z,10.97
2022-10-26T04:12:01.925Z,10.81
2022-10-26T04:14:30.122Z,10.80
2022-10-26T04:16:58.291Z,10.84
2022-10-26T04:19:26.498Z,11.06
2022-10-26T04:21:54.706Z,10.97
2022-10-26T04:24:22.905Z,10.90
2022-10-26T04:26:51.104Z,10.80
2022-10-26T04:29:20.677Z,10.97
2022-10-26T04:31:49.525Z,10.96
2022-10-26T04:34:17.760Z,10.96
2022-10-26T04:36:45.924Z,10.88
2022-10-26T04:39:14.111Z,10.92
2022-10-26T04:41:42.273Z,10.84
2022-10-26T04:44:10.576Z,11.00
2022-10-26T04:46:40.151Z,11.03
2022-10-26T04:49:08.414Z,10.94
2022-10-26T04:51:36.615Z,10.95
2022-10-26T04:54:05.091Z,10.86
2022-10-26T04:56:34.135Z,11.00
2022-10-26T04:59:03.046Z,10.94
2022-10-26T05:01:32.649Z,10.93
2022-10-26T05:04:02.313Z,10.93
2022-10-26T05:06:31.205Z,10.93
2022-10-26T05:08:59.390Z,10.92
2022-10-26T05:11:27.568Z,11.05
2022-10-26T05:13:55.811Z,11.01
2022-10-26T05:16:24.027Z,11.01
2022-10-26T05:18:52.245Z,10.94
2022-10-26T05:21:21.851Z,10.97
2022-10-26T05:23:52.536Z,10.82
2022-10-26T05:26:21.400Z,10.72
2022-10-26T05:28:49.865Z,10.20
2022-10-26T05:31:18.191Z,10.83
2022-10-26T05:33:49.849Z,10.83
2022-10-26T05:36:18.942Z,10.86
2022-10-26T05:38:48.687Z,10.72
2022-10-26T05:41:16.928Z,10.94
2022-10-26T05:43:45.133Z,10.86
2022-10-26T05:46:13.350Z,10.90
2022-10-26T05:48:41.603Z,10.91
2022-10-26T05:51:10.713Z,10.96
2022-10-26T05:53:39.352Z,10.93
2022-10-26T05:56:20.854Z,10.90
2022-10-26T05:58:50.127Z,10.89
2022-10-26T06:01:30.330Z,10.99
2022-10-26T06:07:18.133Z,10.45
2022-10-26T06:09:48.370Z,10.61
2022-10-26T06:12:19.863Z,10.93
2022-10-26T06:14:49.190Z,11.02
2022-10-26T06:17:37.158Z,11.06
2022-10-26T06:20:22.634Z,11.11
2022-10-26T06:23:04.766Z,11.14
2022-10-26T06:25:44.480Z,11.01
2022-10-26T06:28:26.561Z,11.04
2022-10-26T06:30:54.959Z,11.13
2022-10-26T06:33:30.984Z,11.08
2022-10-26T06:36:17.452Z,11.09
2022-10-26T06:38:46.747Z,11.09
2022-10-26T06:41:18.910Z,11.00
2022-10-26T06:43:54.013Z,11.06
2022-10-26T06:46:33.961Z,11.21
2022-10-26T06:49:14.299Z,10.76
2022-10-26T06:51:50.319Z,10.34
2022-10-26T06:54:25.182Z,11.25
2022-10-26T06:56:55.192Z,10.63
2022-10-26T06:59:37.899Z,11.14
2022-10-26T07:02:06.942Z,11.35
2022-10-26T07:04:35.242Z,11.36
2022-10-26T07:07:10.175Z,11.27
2022-10-26T07:09:39.936Z,11.37
2022-10-26T07:12:08.396Z,11.39
2022-10-26T07:14:37.953Z,11.38
2022-10-26T07:17:07.471Z,11.37
2022-10-26T07:19:35.728Z,11.44
2022-10-26T07:22:04.306Z,11.08
2022-10-26T07:24:32.788Z,11.38
2022-10-26T07:27:00.969Z,11.42
2022-10-26T07:29:29.718Z,11.49
2022-10-26T07:32:01.619Z,11.58
2022-10-26T07:34:29.835Z,11.51
2022-10-26T07:37:00.230Z,11.54
2022-10-26T07:39:28.698Z,11.66
2022-10-26T07:41:56.882Z,11.79
2022-10-26T07:44:25.067Z,11.78
2022-10-26T07:46:53.303Z,11.86
2022-10-26T07:49:26.102Z,11.89
2022-10-26T07:51:56.047Z,12.00
2022-10-26T07:54:24.347Z,11.43
2022-10-26T07:56:52.726Z,12.07
2022-10-26T07:59:20.997Z,12.05
2022-10-26T08:01:49.239Z,12.20
2022-10-26T08:04:26.030Z,12.07
2022-10-26T08:06:54.699Z,12.17
2022-10-26T08:09:22.886Z,12.17
2022-10-26T08:11:51.470Z,12.19
2022-10-26T08:14:19.688Z,12.94
2022-10-26T08:16:50.229Z,12.39
2022-10-26T08:19:18.468Z,12.22
2022-10-26T08:21:48.015Z,12.40
2022-10-26T08:24:16.256Z,12.37
2022-10-26T08:26:44.765Z,12.59
2022-10-26T08:29:12.984Z,12.59
2022-10-26T08:31:41.214Z,12.60
2022-10-26T08:34:10.242Z,12.55
2022-10-26T08:36:38.469Z,12.73
2022-10-26T08:39:08.133Z,12.80
2022-10-26T08:41:39.845Z,12.77
2022-10-26T08:44:27.858Z,12.93
2022-10-26T08:47:02.248Z,12.87
2022-10-26T08:49:36.781Z,12.92
2022-10-26T08:52:07.755Z,12.87
2022-10-26T08:54:42.002Z,12.94
2022-10-26T08:57:22.022Z,12.98
2022-10-26T08:59:57.323Z,13.05
2022-10-26T09:02:25.802Z,13.11
2022-10-26T09:04:55.363Z,13.12
2022-10-26T09:07:53.012Z,13.12
2022-10-26T09:10:40.558Z,13.34
2022-10-26T09:13:24.775Z,13.43
2022-10-26T09:16:04.507Z,13.47
2022-10-26T09:21:39.847Z,13.60
2022-10-26T09:24:16.171Z,13.75
2022-10-26T09:26:55.629Z,13.80
2022-10-26T09:29:28.890Z,13.90
2022-10-26T09:31:58.718Z,14.06
2022-10-26T09:34:33.001Z,14.17
2022-10-26T09:37:01.924Z,13.43
2022-10-26T09:39:43.547Z,14.51
2022-10-26T09:42:20.429Z,14.74
2022-10-26T09:44:55.551Z,14.70
2022-10-26T09:47:34.678Z,14.85
2022-10-26T09:50:17.328Z,14.83
2022-10-26T09:52:45.664Z,15.15
2022-10-26T09:55:14.681Z,15.03
2022-10-26T09:57:47.771Z,14.40
2022-10-26T10:00:18.413Z,15.24
2022-10-26T10:02:52.436Z,15.35
2022-10-26T10:05:50.274Z,15.40
2022-10-26T10:08:21.789Z,15.28
2022-10-26T10:11:01.889Z,15.44
2022-10-26T10:13:34.464Z,15.34
2022-10-26T10:16:11.685Z,14.28
2022-10-26T10:18:41.632Z,15.49
2022-10-26T10:21:11.278Z,15.46
2022-10-26T10:23:51.942Z,15.56
2022-10-26T10:26:20.676Z,15.64
2022-10-26T10:29:01.063Z,15.65
2022-10-26T10:31:31.188Z,15.69
2022-10-26T10:33:59.591Z,15.76
2022-10-26T10:36:30.715Z,15.71
2022-10-26T10:38:59.064Z,15.64
2022-10-26T10:41:30.492Z,15.63
2022-10-26T10:44:07.482Z,15.70
2022-10-26T10:46:37.685Z,15.70
2022-10-26T10:49:10.198Z,15.77
2022-10-26T10:51:41.448Z,15.55
2022-10-26T10:54:24.196Z,15.78
2022-10-26T10:56:55.305Z,15.82
2022-10-26T10:59:54.356Z,16.03
2022-10-26T11:02:55.246Z,15.94
2022-10-26T11:05:49.720Z,16.13
2022-10-26T11:08:24.559Z,15.64
2022-10-26T11:11:00.304Z,16.10
2022-10-26T11:13:35.788Z,16.40
2022-10-26T11:16:13.462Z,16.62
2022-10-26T11:18:45.528Z,16.65
2022-10-26T11:21:26.680Z,16.78
2022-10-26T11:24:11.079Z,17.08
2022-10-26T11:26:46.658Z,17.26
2022-10-26T11:29:32.772Z,17.31
2022-10-26T11:32:12.419Z,17.46
2022-10-26T11:34:47.767Z,17.71
2022-10-26T11:37:25.125Z,17.78
2022-10-26T11:40:03.885Z,17.84
2022-10-26T11:42:37.644Z,17.94
2022-10-26T11:45:17.240Z,17.52
2022-10-26T11:47:53.766Z,18.40
2022-10-26T11:50:26.792Z,18.26
2022-10-26T11:53:01.565Z,18.41
2022-10-26T11:55:31.200Z,18.50
2022-10-26T11:58:00.181Z,18.63
2022-10-26T12:00:29.187Z,18.65
2022-10-26T12:03:05.536Z,18.62
2022-10-26T12:05:44.537Z,18.91
2022-10-26T12:08:19.823Z,18.74
2022-10-26T12:10:53.963Z,18.88
2022-10-26T12:13:31.585Z,18.83
2022-10-26T12:16:07.198Z,18.93
2022-10-26T12:18:55.176Z,18.95
2022-10-26T12:21:29.600Z,18.32
2022-10-26T12:24:00.465Z,19.02
2022-10-26T12:26:57.302Z,19.01
2022-10-26T12:29:38.674Z,19.22
2022-10-26T12:32:56.313Z,19.18
2022-10-26T12:35:46.352Z,19.33
2022-10-26T12:38:58.386Z,19.29
2022-10-26T12:41:27.963Z,19.03
2022-10-26T12:44:08.996Z,19.43
2022-10-26T12:46:42.603Z,19.53
2022-10-26T12:50:04.775Z,19.50
2022-10-26T12:52:49.517Z,19.65
2022-10-26T12:55:56.473Z,19.52
2022-10-26T12:59:12.886Z,19.60
2022-10-26T13:02:05.598Z,19.76
2022-10-26T13:05:08.773Z,19.92
2022-10-26T13:07:39.016Z,19.72
2022-10-26T13:10:21.770Z,19.98
2022-10-26T13:12:53.941Z,19.94
2022-10-26T13:15:26.405Z,20.08
2022-10-26T13:18:00.406Z,20.42
2022-10-26T13:20:30.638Z,20.27
2022-10-26T13:22:59.287Z,20.16
2022-10-26T13:25:32.155Z,20.12
2022-10-26T13:28:07.002Z,20.43
2022-10-26T13:30:48.158Z,20.19
2022-10-26T13:33:24.862Z,20.07
2022-10-26T13:35:56.910Z,20.35
2022-10-26T13:38:32.231Z,20.23
2022-10-26T13:41:18.382Z,19.75
2022-10-26T13:43:48.160Z,19.86
2022-10-26T13:46:27.888Z,20.20
2022-10-26T13:49:06.039Z,20.23
2022-10-26T13:51:42.102Z,19.90
2022-10-26T13:54:24.039Z,19.71
2022-10-26T13:57:11.669Z,18.83
2022-10-26T13:59:44.757Z,19.30
2022-10-26T14:02:24.400Z,19.48
2022-10-26T14:05:00.927Z,19.44
2022-10-26T14:07:38.027Z,19.61
2022-10-26T14:10:07.383Z,19.47
2022-10-26T14:12:37.072Z,19.55
2022-10-26T14:15:09.003Z,19.45
2022-10-26T14:17:37.198Z,19.39
2022-10-26T14:20:06.938Z,19.15
2022-10-26T14:22:35.434Z,19.20
2022-10-26T14:25:03.665Z,19.27
2022-10-26T14:27:40.003Z,19.10
2022-10-26T14:30:24.656Z,19.12
2022-10-26T14:32:53.966Z,19.21
2022-10-26T14:35:26.850Z,19.05
2022-10-26T14:37:58.297Z,19.11
2022-10-26T14:40:29.741Z,19.22
2022-10-26T14:43:01.905Z,18.91
2022-10-26T14:45:48.069Z,18.89
2022-10-26T14:48:24.915Z,19.01
2022-10-26T14:51:12.769Z,18.76
2022-10-26T14:53:42.744Z,18.70
2022-10-26T14:56:24.345Z,18.62
2022-10-26T14:58:55.081Z,18.50
2022-10-26T15:01:31.848Z,18.53
2022-10-26T15:04:04.972Z,18.47
2022-10-26T15:06:39.533Z,18.12
2022-10-26T15:09:08.276Z,18.77
2022-10-26T15:11:42.926Z,19.14
2022-10-26T15:14:14.484Z,19.61
2022-10-26T15:16:42.707Z,19.75
2022-10-26T15:19:15.115Z,19.48
2022-10-26T15:21:48.591Z,19.55
2022-10-26T15:24:34.643Z,19.98
2022-10-26T15:27:13.652Z,19.81
2022-10-26T15:29:45.779Z,20.00
2022-10-26T15:32:28.740Z,19.91
2022-10-26T15:35:27.866Z,19.71
2022-10-26T15:37:57.361Z,20.09
2022-10-26T15:40:27.661Z,20.01
2022-10-26T15:43:00.062Z,19.71
2022-10-26T15:45:32.983Z,19.60
2022-10-26T15:48:25.439Z,19.23
2022-10-26T15:50:54.222Z,19.13
2022-10-26T15:53:27.394Z,18.96
2022-10-26T15:55:58.371Z,18.96
2022-10-26T15:58:32.306Z,18.63
2022-10-26T16:01:01.888Z,18.47
2022-10-26T16:03:30.691Z,18.48
2022-10-26T16:06:02.470Z,18.32
2022-10-26T16:08:32.571Z,18.37
2022-10-26T16:11:00.769Z,18.38
2022-10-26T16:13:30.601Z,18.31
2022-10-26T16:15:59.251Z,18.26
2022-10-26T16:18:29.070Z,18.07
2022-10-26T16:20:57.272Z,17.84
2022-10-26T16:23:25.481Z,17.60
2022-10-26T16:25:53.681Z,17.63
2022-10-26T16:28:21.943Z,17.49
2022-10-26T16:30:50.175Z,17.28
2022-10-26T16:33:18.399Z,17.19
2022-10-26T16:35:57.222Z,17.11
2022-10-26T16:38:26.545Z,16.89
2022-10-26T16:41:02.898Z,16.90
2022-10-26T16:43:33.601Z,16.81
2022-10-26T16:46:05.736Z,16.79
2022-10-26T16:48:36.329Z,16.68
2022-10-26T16:51:11.014Z,16.53
2022-10-26T16:53:40.029Z,16.52
2022-10-26T16:56:11.666Z,16.25
2022-10-26T16:58:41.339Z,16.08
2022-10-26T17:01:12.984Z,16.03
2022-10-26T17:03:41.395Z,15.94
2022-10-26T17:06:11.136Z,15.75
2022-10-26T17:08:39.615Z,15.54
2022-10-26T17:11:10.240Z,15.51
2022-10-26T17:13:39.644Z,15.36
2022-10-26T17:16:11.597Z,15.37
2022-10-26T17:18:41.351Z,15.27
2022-10-26T17:21:12.573Z,15.34
2022-10-26T17:23:41.078Z,15.13
2022-10-26T17:26:15.998Z,15.25
2022-10-26T17:28:44.251Z,15.18
2022-10-26T17:31:14.884Z,14.62
2022-10-26T17:33:45.181Z,14.84
2022-10-26T17:36:16.687Z,14.76
2022-10-26T17:38:45.134Z,14.76
2022-10-26T17:41:15.150Z,14.65
2022-10-26T17:43:46.207Z,14.44
2022-10-26T17:46:17.146Z,14.52
2022-10-26T17:48:45.802Z,14.41
2022-10-26T17:51:18.167Z,14.36
2022-10-26T17:53:49.738Z,14.37
2022-10-26T17:56:20.670Z,14.24
2022-10-26T17:58:53.050Z,14.06
2022-10-26T18:01:22.473Z,14.15
2022-10-26T18:03:59.634Z,13.93
2022-10-26T18:06:30.004Z,13.93
2022-10-26T18:08:59.006Z,13.68
2022-10-26T18:11:28.532Z,13.66
2022-10-26T18:13:58.131Z,13.38
2022-10-26T18:16:30.893Z,13.57
2022-10-26T18:19:02.217Z,13.40
2022-10-26T18:21:34.953Z,13.51
2022-10-26T18:24:07.064Z,13.47
2022-10-26T18:26:36.583Z,12.89
2022-10-26T18:29:06.259Z,13.50
2022-10-26T18:31:35.809Z,13.40
2022-10-26T18:34:06.542Z,13.18
2022-10-26T18:39:06.170Z,13.29
2022-10-26T18:41:34.712Z,12.95
2022-10-26T18:44:03.025Z,12.72
2022-10-26T18:46:33.975Z,11.39
2022-10-26T18:49:02.339Z,13.00
2022-10-26T18:51:34.025Z,12.88
2022-10-26T18:54:03.966Z,12.11
2022-10-26T18:56:32.536Z,12.76
2022-10-26T18:59:02.113Z,12.96
2022-10-26T19:01:32.644Z,12.74
2022-10-26T19:04:03.088Z,12.93
2022-10-26T19:06:33.572Z,12.10
2022-10-26T19:09:04.638Z,12.63
2022-10-26T19:11:33.449Z,12.64
2022-10-26T19:14:01.790Z,12.67
2022-10-26T19:16:45.326Z,12.57
2022-10-26T19:19:15.553Z,12.48
2022-10-26T19:21:44.286Z,12.51
2022-10-26T19:24:16.844Z,12.66
2022-10-26T19:26:51.667Z,12.50
2022-10-26T19:29:21.161Z,12.31
2022-10-26T19:31:53.216Z,11.81
2022-10-26T19:34:21.782Z,11.39
2022-10-26T19:36:50.225Z,12.10
2022-10-26T19:39:20.207Z,12.25
2022-10-26T19:41:48.945Z,11.98
2022-10-26T19:44:19.730Z,11.24
2022-10-26T19:46:49.145Z,11.84
2022-10-26T19:49:18.371Z,11.79
2022-10-26T19:51:47.879Z,11.64
2022-10-26T19:54:16.194Z,11.71
2022-10-26T19:56:45.917Z,11.93
2022-10-26T19:59:14.339Z,11.80
2022-10-26T20:01:42.744Z,11.88
2022-10-26T20:04:18.155Z,11.74
2022-10-26T20:07:12.174Z,11.67
2022-10-26T20:09:40.509Z,11.61
2022-10-26T20:12:12.654Z,11.59
2022-10-26T20:14:41.427Z,11.53
2022-10-26T20:17:09.772Z,11.49
2022-10-26T20:19:38.044Z,10.70
2022-10-26T20:22:06.432Z,11.44
2022-10-26T20:24:34.726Z,11.12
2022-10-26T20:27:03.082Z,11.43
2022-10-26T20:29:32.787Z,11.42
2022-10-26T20:32:01.512Z,11.38
2022-10-26T20:37:03.056Z,11.43
2022-10-26T20:39:32.192Z,11.40
2022-10-26T20:42:04.355Z,11.43
2022-10-26T20:44:41.149Z,11.40
2022-10-26T20:47:10.681Z,11.43
2022-10-26T20:49:39.822Z,11.40
2022-10-26T20:52:21.258Z,11.37
2022-10-26T20:54:56.659Z,10.38
2022-10-26T20:57:31.384Z,10.99
2022-10-26T21:00:07.412Z,10.36
2022-10-26T21:02:35.771Z,10.46
2022-10-26T21:05:04.342Z,10.78
2022-10-26T21:07:32.726Z,10.79
2022-10-26T21:10:01.018Z,10.73
2022-10-26T21:12:29.402Z,10.86
2022-10-26T21:14:57.716Z,10.71
2022-10-26T21:17:27.425Z,10.78
2022-10-26T21:19:55.721Z,9.76
2022-10-26T21:22:24.029Z,10.90
2022-10-26T21:24:52.644Z,10.59
2022-10-26T21:27:20.876Z,10.62
2022-10-26T21:29:49.114Z,10.60
2022-10-26T21:32:17.424Z,10.48
2022-10-26T21:34:46.946Z,10.39
2022-10-26T21:37:15.160Z,10.29
2022-10-26T21:39:43.389Z,10.36
2022-10-26T21:42:11.584Z,10.24
2022-10-26T21:44:41.280Z,10.22
2022-10-26T21:47:10.189Z,10.32
2022-10-26T21:49:38.474Z,10.27
2022-10-26T21:52:09.131Z,9.92
2022-10-26T21:54:37.252Z,9.94
2022-10-26T21:57:05.532Z,10.01
2022-10-26T21:59:33.763Z,10.03
2022-10-26T22:02:07.082Z,10.02
2022-10-26T22:04:35.467Z,10.00
2022-10-26T22:07:11.321Z,9.87
2022-10-26T22:09:49.402Z,9.94
2022-10-26T22:12:27.601Z,9.93
2022-10-26T22:14:55.746Z,9.93
2022-10-26T22:17:24.533Z,9.76
2022-10-26T22:19:52.659Z,9.89
2022-10-26T22:22:22.606Z,9.84
2022-10-26T22:24:50.794Z,9.86
2022-10-26T22:27:18.949Z,9.74
2022-10-26T22:29:47.302Z,9.82
2022-10-26T22:32:15.529Z,9.82
2022-10-26T22:34:44.153Z,9.80
2022-10-26T22:37:12.346Z,9.64
2022-10-26T22:39:41.875Z,9.74
2022-10-26T22:42:10.512Z,9.80
2022-10-26T22:44:38.755Z,9.69
2022-10-26T22:47:07.019Z,9.69
2022-10-26T22:49:35.215Z,9.65
2022-10-26T22:52:03.412Z,9.60
2022-10-26T22:54:31.688Z,9.57
2022-10-26T22:57:01.811Z,9.43
2022-10-26T22:59:30.010Z,9.38
2022-10-26T23:01:58.299Z,9.52
2022-10-26T23:04:26.627Z,9.47
2022-10-26T23:06:54.827Z,9.47
2022-10-26T23:09:23.025Z,9.43
2022-10-26T23:11:51.323Z,9.39
2022-10-26T23:14:20.875Z,9.44
2022-10-26T23:16:49.051Z,9.40
2022-10-26T23:19:17.465Z,9.33
2022-10-26T23:21:45.672Z,9.18
2022-10-26T23:24:13.875Z,9.20
2022-10-26T23:26:42.086Z,9.16
2022-10-26T23:29:10.269Z,9.09
2022-10-26T23:31:39.778Z,9.08
2022-10-26T23:34:07.938Z,8.83
2022-10-26T23:36:36.127Z,9.09
2022-10-26T23:39:04.312Z,9.04
2022-10-26T23:41:32.490Z,8.99
2022-10-26T23:44:00.836Z,7.71
2022-10-26T23:46:29.055Z,8.96
2022-10-26T23:48:58.845Z,8.83
2022-10-26T23:51:27.031Z,8.87
2022-10-26T23:53:55.515Z,8.90
2022-10-26T23:56:23.708Z,8.84
2022-10-26T23:58:51.921Z,8.89
